Terminal Aerodrome Forecast
Issued by NWS Albany, NY

Home | Current Version | Previous Version | Text Only | Print | Product List | Glossary On
Versions: 1 2 3 4 5 6 7 8 9 10 11 12 13 14 15 16
000
FTUS41 KALY 310500 RRA
TAFGFL
TAF
KGFL 310548Z 3106/0106 20009KT P6SM OVC030
     FM310800 20007KT 6SM BR OVC020
     FM311500 21007KT P6SM VCSH OVC035
     FM311900 21007KT 5SM -SHRA BR OVC030 PROB30 3120/3124 3SM TSRA
      OVC020CB
     FM010100 20003KT 5SM BR VCSH OVC025=

USA.gov is the U.S. government's official web portal to all federal, state and local government web resources and services.